sensor_id;sensor_type;location;lat;lon;timestamp;temperature;humidity
34572;DHT22;20808;48.974;8.452;2022-09-27T00:01:55;10.50;99.90
34572;DHT22;20808;48.974;8.452;2022-09-27T00:04:21;10.50;99.90
34572;DHT22;20808;48.974;8.452;2022-09-27T00:06:48;10.50;99.90
34572;DHT22;20808;48.974;8.452;2022-09-27T00:09:17;10.50;99.90
34572;DHT22;20808;48.974;8.452;2022-09-27T00:11:44;10.50;99.90
34572;DHT22;20808;48.974;8.452;2022-09-27T00:14:14;10.50;99.90
34572;DHT22;20808;48.974;8.452;2022-09-27T00:16:42;10.60;99.90
34572;DHT22;20808;48.974;8.452;2022-09-27T00:19:12;10.60;99.90
34572;DHT22;20808;48.974;8.452;2022-09-27T00:21:39;10.60;99.90
34572;DHT22;20808;48.974;8.452;2022-09-27T00:24:10;10.60;99.90
34572;DHT22;20808;48.974;8.452;2022-09-27T00:26:39;10.50;99.90
34572;DHT22;20808;48.974;8.452;2022-09-27T00:29:06;10.50;99.90
34572;DHT22;20808;48.974;8.452;2022-09-27T00:31:33;10.50;99.90
34572;DHT22;20808;48.974;8.452;2022-09-27T00:34:01;10.60;99.90
34572;DHT22;20808;48.974;8.452;2022-09-27T00:36:30;10.50;99.90
34572;DHT22;20808;48.974;8.452;2022-09-27T00:38:58;10.50;99.90
34572;DHT22;20808;48.974;8.452;2022-09-27T00:41:27;10.60;99.90
34572;DHT22;20808;48.974;8.452;2022-09-27T00:43:58;10.50;99.90
34572;DHT22;20808;48.974;8.452;2022-09-27T00:46:28;10.50;99.90
34572;DHT22;20808;48.974;8.452;2022-09-27T00:49:03;10.50;99.90
34572;DHT22;20808;48.974;8.452;2022-09-27T00:51:33;10.60;99.90
34572;DHT22;20808;48.974;8.452;2022-09-27T00:54:00;10.60;99.90
34572;DHT22;20808;48.974;8.452;2022-09-27T00:56:29;10.60;99.90
34572;DHT22;20808;48.974;8.452;2022-09-27T00:59:02;10.60;99.90
34572;DHT22;20808;48.974;8.452;2022-09-27T01:01:32;10.60;99.90
34572;DHT22;20808;48.974;8.452;2022-09-27T01:04:02;10.60;99.90
34572;DHT22;20808;48.974;8.452;2022-09-27T01:06:31;10.60;99.90
34572;DHT22;20808;48.974;8.452;2022-09-27T01:08:58;10.70;99.90
34572;DHT22;20808;48.974;8.452;2022-09-27T01:11:34;10.60;99.90
34572;DHT22;20808;48.974;8.452;2022-09-27T01:14:28;10.70;99.90
34572;DHT22;20808;48.974;8.452;2022-09-27T01:17:08;10.70;99.90
34572;DHT22;20808;48.974;8.452;2022-09-27T01:22:44;10.70;99.90
34572;DHT22;20808;48.974;8.452;2022-09-27T01:25:33;10.70;99.90
34572;DHT22;20808;48.974;8.452;2022-09-27T01:28:17;10.60;99.90
34572;DHT22;20808;48.974;8.452;2022-09-27T01:30:49;10.60;99.90
34572;DHT22;20808;48.974;8.452;2022-09-27T01:33:28;10.60;99.90
34572;DHT22;20808;48.974;8.452;2022-09-27T01:36:06;10.60;99.90
34572;DHT22;20808;48.974;8.452;2022-09-27T01:38:44;10.50;99.90
34572;DHT22;20808;48.974;8.452;2022-09-27T01:41:22;10.50;99.90
34572;DHT22;20808;48.974;8.452;2022-09-27T01:43:55;10.40;99.90
34572;DHT22;20808;48.974;8.452;2022-09-27T01:46:30;10.30;99.90
34572;DHT22;20808;48.974;8.452;2022-09-27T01:49:02;10.30;99.90
34572;DHT22;20808;48.974;8.452;2022-09-27T01:51:34;10.30;99.90
34572;DHT22;20808;48.974;8.452;2022-09-27T01:54:06;10.30;99.90
34572;DHT22;20808;48.974;8.452;2022-09-27T01:56:37;10.30;99.90
34572;DHT22;20808;48.974;8.452;2022-09-27T01:59:10;10.40;99.90
34572;DHT22;20808;48.974;8.452;2022-09-27T02:01:43;10.40;99.90
34572;DHT22;20808;48.974;8.452;2022-09-27T02:04:13;10.40;99.90
34572;DHT22;20808;48.974;8.452;2022-09-27T02:06:44;10.40;99.90
34572;DHT22;20808;48.974;8.452;2022-09-27T02:09:14;10.30;99.90
34572;DHT22;20808;48.974;8.452;2022-09-27T02:11:45;10.40;99.90
34572;DHT22;20808;48.974;8.452;2022-09-27T02:14:17;10.40;99.90
34572;DHT22;20808;48.974;8.452;2022-09-27T02:16:49;10.40;99.90
34572;DHT22;20808;48.974;8.452;2022-09-27T02:19:23;10.30;99.90
34572;DHT22;20808;48.974;8.452;2022-09-27T02:22:01;10.30;99.90
34572;DHT22;20808;48.974;8.452;2022-09-27T02:24:38;10.30;99.90
34572;DHT22;20808;48.974;8.452;2022-09-27T02:27:12;10.30;99.90
34572;DHT22;20808;48.974;8.452;2022-09-27T02:29:46;10.30;99.90
34572;DHT22;20808;48.974;8.452;2022-09-27T02:32:17;10.30;99.90
34572;DHT22;20808;48.974;8.452;2022-09-27T02:34:45;10.30;99.90
34572;DHT22;20808;48.974;8.452;2022-09-27T02:37:13;10.30;99.90
34572;DHT22;20808;48.974;8.452;2022-09-27T02:39:40;10.30;99.90
34572;DHT22;20808;48.974;8.452;2022-09-27T02:42:07;10.30;99.90
34572;DHT22;20808;48.974;8.452;2022-09-27T02:44:33;10.30;99.90
34572;DHT22;20808;48.974;8.452;2022-09-27T02:47:15;10.30;99.90
34572;DHT22;20808;48.974;8.452;2022-09-27T02:49:58;10.30;99.90
34572;DHT22;20808;48.974;8.452;2022-09-27T02:52:37;10.30;99.90
34572;DHT22;20808;48.974;8.452;2022-09-27T02:55:13;10.30;99.90
34572;DHT22;20808;48.974;8.452;2022-09-27T02:57:54;10.30;99.90
34572;DHT22;20808;48.974;8.452;2022-09-27T03:00:29;10.30;99.90
34572;DHT22;20808;48.974;8.452;2022-09-27T03:03:03;10.30;99.90
34572;DHT22;20808;48.974;8.452;2022-09-27T03:05:37;10.30;99.90
34572;DHT22;20808;48.974;8.452;2022-09-27T03:08:06;10.30;99.90
34572;DHT22;20808;48.974;8.452;2022-09-27T03:10:33;10.30;99.90
34572;DHT22;20808;48.974;8.452;2022-09-27T03:13:00;10.30;99.90
34572;DHT22;20808;48.974;8.452;2022-09-27T03:15:29;10.30;99.90
34572;DHT22;20808;48.974;8.452;2022-09-27T03:17:56;10.30;99.90
34572;DHT22;20808;48.974;8.452;2022-09-27T03:20:23;10.30;99.90
34572;DHT22;20808;48.974;8.452;2022-09-27T03:22:51;10.30;99.90
34572;DHT22;20808;48.974;8.452;2022-09-27T03:25:19;10.30;99.90
34572;DHT22;20808;48.974;8.452;2022-09-27T03:27:46;10.30;99.90
34572;DHT22;20808;48.974;8.452;2022-09-27T03:30:13;10.30;99.90
34572;DHT22;20808;48.974;8.452;2022-09-27T03:32:41;10.30;99.90
34572;DHT22;20808;48.974;8.452;2022-09-27T03:35:10;10.30;99.90
34572;DHT22;20808;48.974;8.452;2022-09-27T03:37:38;10.30;99.90
34572;DHT22;20808;48.974;8.452;2022-09-27T03:40:08;10.30;99.90
34572;DHT22;20808;48.974;8.452;2022-09-27T03:42:35;10.30;99.90
34572;DHT22;20808;48.974;8.452;2022-09-27T03:45:02;10.30;99.90
34572;DHT22;20808;48.974;8.452;2022-09-27T03:47:29;10.30;99.90
34572;DHT22;20808;48.974;8.452;2022-09-27T03:49:55;10.30;99.90
34572;DHT22;20808;48.974;8.452;2022-09-27T03:52:22;10.30;99.90
34572;DHT22;20808;48.974;8.452;2022-09-27T03:54:49;10.30;99.90
34572;DHT22;20808;48.974;8.452;2022-09-27T03:57:17;10.30;99.90
34572;DHT22;20808;48.974;8.452;2022-09-27T03:59:44;10.30;99.90
34572;DHT22;20808;48.974;8.452;2022-09-27T04:02:11;10.30;99.90
34572;DHT22;20808;48.974;8.452;2022-09-27T04:04:38;10.30;99.90
34572;DHT22;20808;48.974;8.452;2022-09-27T04:07:05;10.30;99.90
34572;DHT22;20808;48.974;8.452;2022-09-27T04:09:33;10.30;99.90
34572;DHT22;20808;48.974;8.452;2022-09-27T04:12:00;10.20;99.90
34572;DHT22;20808;48.974;8.452;2022-09-27T04:14:28;10.20;99.90
34572;DHT22;20808;48.974;8.452;2022-09-27T04:16:55;10.20;99.90
34572;DHT22;20808;48.974;8.452;2022-09-27T04:19:22;10.20;99.90
34572;DHT22;20808;48.974;8.452;2022-09-27T04:21:49;10.20;99.90
34572;DHT22;20808;48.974;8.452;2022-09-27T04:24:16;10.20;99.90
34572;DHT22;20808;48.974;8.452;2022-09-27T04:26:42;10.20;99.90
34572;DHT22;20808;48.974;8.452;2022-09-27T04:29:10;10.20;99.90
34572;DHT22;20808;48.974;8.452;2022-09-27T04:31:38;10.20;99.90
34572;DHT22;20808;48.974;8.452;2022-09-27T04:34:05;10.10;99.90
34572;DHT22;20808;48.974;8.452;2022-09-27T04:36:32;10.20;99.90
34572;DHT22;20808;48.974;8.452;2022-09-27T04:39:00;10.10;99.90
34572;DHT22;20808;48.974;8.452;2022-09-27T04:41:28;10.10;99.90
34572;DHT22;20808;48.974;8.452;2022-09-27T04:43:56;10.10;99.90
34572;DHT22;20808;48.974;8.452;2022-09-27T04:46:26;10.00;99.90
34572;DHT22;20808;48.974;8.452;2022-09-27T04:48:57;10.00;99.90
34572;DHT22;20808;48.974;8.452;2022-09-27T04:51:24;10.00;99.90
34572;DHT22;20808;48.974;8.452;2022-09-27T04:53:51;10.00;99.90
34572;DHT22;20808;48.974;8.452;2022-09-27T04:56:18;9.90;99.90
34572;DHT22;20808;48.974;8.452;2022-09-27T04:58:45;10.00;99.90
34572;DHT22;20808;48.974;8.452;2022-09-27T05:01:12;9.90;99.90
34572;DHT22;20808;48.974;8.452;2022-09-27T05:03:39;9.90;99.90
34572;DHT22;20808;48.974;8.452;2022-09-27T05:06:08;9.90;99.90
34572;DHT22;20808;48.974;8.452;2022-09-27T05:08:35;9.90;99.90
34572;DHT22;20808;48.974;8.452;2022-09-27T05:11:02;9.90;99.90
34572;DHT22;20808;48.974;8.452;2022-09-27T05:13:29;9.90;99.90
34572;DHT22;20808;48.974;8.452;2022-09-27T05:16:01;9.90;99.90
34572;DHT22;20808;48.974;8.452;2022-09-27T05:18:28;9.90;99.90
34572;DHT22;20808;48.974;8.452;2022-09-27T05:20:55;9.90;99.90
34572;DHT22;20808;48.974;8.452;2022-09-27T05:23:24;9.90;99.90
34572;DHT22;20808;48.974;8.452;2022-09-27T05:25:51;9.90;99.90
34572;DHT22;20808;48.974;8.452;2022-09-27T05:28:20;9.90;99.90
34572;DHT22;20808;48.974;8.452;2022-09-27T05:30:47;9.90;99.90
34572;DHT22;20808;48.974;8.452;2022-09-27T05:33:14;9.90;99.90
34572;DHT22;20808;48.974;8.452;2022-09-27T05:35:40;9.90;99.90
34572;DHT22;20808;48.974;8.452;2022-09-27T05:38:09;10.00;99.90
34572;DHT22;20808;48.974;8.452;2022-09-27T05:40:38;10.00;99.90
34572;DHT22;20808;48.974;8.452;2022-09-27T05:43:08;10.00;99.90
34572;DHT22;20808;48.974;8.452;2022-09-27T05:45:35;10.00;99.90
34572;DHT22;20808;48.974;8.452;2022-09-27T05:48:02;9.90;99.90
34572;DHT22;20808;48.974;8.452;2022-09-27T05:50:30;9.90;99.90
34572;DHT22;20808;48.974;8.452;2022-09-27T05:52:57;9.90;99.90
34572;DHT22;20808;48.974;8.452;2022-09-27T05:55:24;9.90;99.90
34572;DHT22;20808;48.974;8.452;2022-09-27T05:57:57;9.90;99.90
34572;DHT22;20808;48.974;8.452;2022-09-27T06:00:25;9.90;99.90
34572;DHT22;20808;48.974;8.452;2022-09-27T06:02:53;9.90;99.90
34572;DHT22;20808;48.974;8.452;2022-09-27T06:05:22;9.90;99.90
34572;DHT22;20808;48.974;8.452;2022-09-27T06:07:50;9.90;99.90
34572;DHT22;20808;48.974;8.452;2022-09-27T06:10:18;9.90;99.90
34572;DHT22;20808;48.974;8.452;2022-09-27T06:12:45;9.90;99.90
34572;DHT22;20808;48.974;8.452;2022-09-27T06:15:13;9.80;99.90
34572;DHT22;20808;48.974;8.452;2022-09-27T06:17:40;9.80;99.90
34572;DHT22;20808;48.974;8.452;2022-09-27T06:20:08;9.80;99.90
34572;DHT22;20808;48.974;8.452;2022-09-27T06:22:35;9.80;99.90
34572;DHT22;20808;48.974;8.452;2022-09-27T06:25:02;9.80;99.90
34572;DHT22;20808;48.974;8.452;2022-09-27T06:27:30;9.80;99.90
34572;DHT22;20808;48.974;8.452;2022-09-27T06:29:56;9.70;99.90
34572;DHT22;20808;48.974;8.452;2022-09-27T06:32:25;9.80;99.90
34572;DHT22;20808;48.974;8.452;2022-09-27T06:34:52;9.70;99.90
34572;DHT22;20808;48.974;8.452;2022-09-27T06:37:18;9.70;99.90
34572;DHT22;20808;48.974;8.452;2022-09-27T06:39:45;9.70;99.90
34572;DHT22;20808;48.974;8.452;2022-09-27T06:42:13;9.80;99.90
34572;DHT22;20808;48.974;8.452;2022-09-27T06:44:42;9.70;99.90
34572;DHT22;20808;48.974;8.452;2022-09-27T06:47:11;9.80;99.90
34572;DHT22;20808;48.974;8.452;2022-09-27T06:49:40;9.80;99.90
34572;DHT22;20808;48.974;8.452;2022-09-27T06:52:07;9.80;99.90
34572;DHT22;20808;48.974;8.452;2022-09-27T06:54:35;9.90;99.90
34572;DHT22;20808;48.974;8.452;2022-09-27T06:57:01;9.90;99.90
34572;DHT22;20808;48.974;8.452;2022-09-27T06:59:28;9.90;99.90
34572;DHT22;20808;48.974;8.452;2022-09-27T07:02:13;9.90;99.90
34572;DHT22;20808;48.974;8.452;2022-09-27T07:04:42;9.80;99.90
34572;DHT22;20808;48.974;8.452;2022-09-27T07:07:09;9.80;99.90
34572;DHT22;20808;48.974;8.452;2022-09-27T07:09:36;9.90;99.90
34572;DHT22;20808;48.974;8.452;2022-09-27T07:12:04;9.90;99.90
34572;DHT22;20808;48.974;8.452;2022-09-27T07:14:31;9.80;99.90
34572;DHT22;20808;48.974;8.452;2022-09-27T07:16:59;9.80;99.90
34572;DHT22;20808;48.974;8.452;2022-09-27T07:19:26;9.90;99.90
34572;DHT22;20808;48.974;8.452;2022-09-27T07:21:54;10.00;99.90
34572;DHT22;20808;48.974;8.452;2022-09-27T07:24:21;10.10;99.90
34572;DHT22;20808;48.974;8.452;2022-09-27T07:26:48;10.20;99.90
34572;DHT22;20808;48.974;8.452;2022-09-27T07:29:15;10.20;99.90
34572;DHT22;20808;48.974;8.452;2022-09-27T07:31:42;10.30;80.00
34572;DHT22;20808;48.974;8.452;2022-09-27T07:34:09;10.40;69.60
34572;DHT22;20808;48.974;8.452;2022-09-27T07:36:37;10.40;60.50
34572;DHT22;20808;48.974;8.452;2022-09-27T07:39:05;10.40;73.20
34572;DHT22;20808;48.974;8.452;2022-09-27T07:41:32;10.40;91.40
34572;DHT22;20808;48.974;8.452;2022-09-27T07:43:59;10.40;18.50
34572;DHT22;20808;48.974;8.452;2022-09-27T07:46:28;10.50;93.90
34572;DHT22;20808;48.974;8.452;2022-09-27T07:48:55;10.60;18.10
34572;DHT22;20808;48.974;8.452;2022-09-27T07:51:23;10.60;1.00
34572;DHT22;20808;48.974;8.452;2022-09-27T07:53:50;10.90;1.00
34572;DHT22;20808;48.974;8.452;2022-09-27T07:56:18;11.30;1.00
34572;DHT22;20808;48.974;8.452;2022-09-27T07:58:45;11.90;1.00
34572;DHT22;20808;48.974;8.452;2022-09-27T08:01:12;12.30;1.00
34572;DHT22;20808;48.974;8.452;2022-09-27T08:03:39;12.20;99.90
34572;DHT22;20808;48.974;8.452;2022-09-27T08:06:06;11.60;99.90
34572;DHT22;20808;48.974;8.452;2022-09-27T08:08:33;11.30;1.00
34572;DHT22;20808;48.974;8.452;2022-09-27T08:11:00;11.00;1.00
34572;DHT22;20808;48.974;8.452;2022-09-27T08:13:28;10.90;1.00
34572;DHT22;20808;48.974;8.452;2022-09-27T08:16:00;10.90;1.00
34572;DHT22;20808;48.974;8.452;2022-09-27T08:18:27;10.80;1.00
34572;DHT22;20808;48.974;8.452;2022-09-27T08:20:55;10.70;6.20
34572;DHT22;20808;48.974;8.452;2022-09-27T08:23:22;10.70;20.90
34572;DHT22;20808;48.974;8.452;2022-09-27T08:25:51;10.90;43.40
34572;DHT22;20808;48.974;8.452;2022-09-27T08:28:18;11.10;33.50
34572;DHT22;20808;48.974;8.452;2022-09-27T08:30:48;11.30;1.00
34572;DHT22;20808;48.974;8.452;2022-09-27T08:33:16;11.40;1.00
34572;DHT22;20808;48.974;8.452;2022-09-27T08:35:43;11.50;1.00
34572;DHT22;20808;48.974;8.452;2022-09-27T08:38:10;11.70;1.00
34572;DHT22;20808;48.974;8.452;2022-09-27T08:40:52;12.10;1.00
34572;DHT22;20808;48.974;8.452;2022-09-27T08:43:31;12.30;14.20
34572;DHT22;20808;48.974;8.452;2022-09-27T08:46:10;12.20;1.00
34572;DHT22;20808;48.974;8.452;2022-09-27T08:48:40;12.20;99.90
34572;DHT22;20808;48.974;8.452;2022-09-27T08:51:11;12.40;92.40
34572;DHT22;20808;48.974;8.452;2022-09-27T08:53:41;12.50;99.90
34572;DHT22;20808;48.974;8.452;2022-09-27T08:56:11;12.30;1.00
34572;DHT22;20808;48.974;8.452;2022-09-27T08:58:42;12.20;1.00
34572;DHT22;20808;48.974;8.452;2022-09-27T09:01:14;12.00;1.00
34572;DHT22;20808;48.974;8.452;2022-09-27T09:03:44;12.10;99.90
34572;DHT22;20808;48.974;8.452;2022-09-27T09:06:17;12.00;99.90
34572;DHT22;20808;48.974;8.452;2022-09-27T09:09:02;11.90;1.00
34572;DHT22;20808;48.974;8.452;2022-09-27T09:11:39;12.00;46.80
34572;DHT22;20808;48.974;8.452;2022-09-27T09:14:44;11.80;1.00
34572;DHT22;20808;48.974;8.452;2022-09-27T09:17:23;11.50;99.90
34572;DHT22;20808;48.974;8.452;2022-09-27T09:20:09;11.40;1.00
34572;DHT22;20808;48.974;8.452;2022-09-27T09:22:52;11.60;99.90
34572;DHT22;20808;48.974;8.452;2022-09-27T09:25:25;11.90;1.00
34572;DHT22;20808;48.974;8.452;2022-09-27T09:28:03;12.40;99.90
34572;DHT22;20808;48.974;8.452;2022-09-27T09:30:40;12.30;1.00
34572;DHT22;20808;48.974;8.452;2022-09-27T09:33:20;12.50;1.00
34572;DHT22;20808;48.974;8.452;2022-09-27T09:35:51;12.70;1.00
34572;DHT22;20808;48.974;8.452;2022-09-27T09:38:25;13.10;1.00
34572;DHT22;20808;48.974;8.452;2022-09-27T09:40:56;13.20;99.90
34572;DHT22;20808;48.974;8.452;2022-09-27T09:43:28;13.30;98.30
34572;DHT22;20808;48.974;8.452;2022-09-27T09:46:01;13.30;25.30
34572;DHT22;20808;48.974;8.452;2022-09-27T09:48:35;12.70;1.00
34572;DHT22;20808;48.974;8.452;2022-09-27T09:51:06;12.20;99.90
34572;DHT22;20808;48.974;8.452;2022-09-27T09:53:39;12.10;1.00
34572;DHT22;20808;48.974;8.452;2022-09-27T09:56:11;12.20;99.90
34572;DHT22;20808;48.974;8.452;2022-09-27T09:58:43;12.20;99.90
34572;DHT22;20808;48.974;8.452;2022-09-27T10:01:17;12.00;1.00
34572;DHT22;20808;48.974;8.452;2022-09-27T10:03:46;12.00;99.90
34572;DHT22;20808;48.974;8.452;2022-09-27T10:06:14;11.90;1.00
34572;DHT22;20808;48.974;8.452;2022-09-27T10:08:41;11.70;1.00
34572;DHT22;20808;48.974;8.452;2022-09-27T10:11:16;11.80;1.00
34572;DHT22;20808;48.974;8.452;2022-09-27T10:13:44;11.80;1.00
34572;DHT22;20808;48.974;8.452;2022-09-27T10:16:15;12.00;1.00
34572;DHT22;20808;48.974;8.452;2022-09-27T10:18:43;12.10;1.00
34572;DHT22;20808;48.974;8.452;2022-09-27T10:21:14;12.10;1.00
34572;DHT22;20808;48.974;8.452;2022-09-27T10:24:05;12.20;1.00
34572;DHT22;20808;48.974;8.452;2022-09-27T10:26:33;12.20;1.00
34572;DHT22;20808;48.974;8.452;2022-09-27T10:29:23;12.20;1.00
34572;DHT22;20808;48.974;8.452;2022-09-27T10:31:53;12.00;1.00
34572;DHT22;20808;48.974;8.452;2022-09-27T10:34:26;11.80;28.90
34572;DHT22;20808;48.974;8.452;2022-09-27T10:37:15;11.80;5.80
34572;DHT22;20808;48.974;8.452;2022-09-27T10:39:43;11.90;98.10
34572;DHT22;20808;48.974;8.452;2022-09-27T10:42:22;11.80;86.30
34572;DHT22;20808;48.974;8.452;2022-09-27T10:44:56;11.70;99.90
34572;DHT22;20808;48.974;8.452;2022-09-27T10:47:24;11.40;99.90
34572;DHT22;20808;48.974;8.452;2022-09-27T10:49:51;10.80;91.20
34572;DHT22;20808;48.974;8.452;2022-09-27T10:52:29;10.50;99.90
34572;DHT22;20808;48.974;8.452;2022-09-27T10:54:57;10.10;99.90
34572;DHT22;20808;48.974;8.452;2022-09-27T10:57:26;9.80;99.90
34572;DHT22;20808;48.974;8.452;2022-09-27T10:59:56;9.60;99.90
34572;DHT22;20808;48.974;8.452;2022-09-27T11:02:27;9.40;99.90
34572;DHT22;20808;48.974;8.452;2022-09-27T11:05:08;9.00;99.90
34572;DHT22;20808;48.974;8.452;2022-09-27T11:07:47;8.90;99.90
34572;DHT22;20808;48.974;8.452;2022-09-27T11:10:23;8.70;99.90
34572;DHT22;20808;48.974;8.452;2022-09-27T11:13:10;8.60;99.90
34572;DHT22;20808;48.974;8.452;2022-09-27T11:15:53;8.60;99.90
34572;DHT22;20808;48.974;8.452;2022-09-27T11:18:29;8.50;99.90
34572;DHT22;20808;48.974;8.452;2022-09-27T11:21:05;8.50;99.90
34572;DHT22;20808;48.974;8.452;2022-09-27T11:23:50;8.50;99.90
34572;DHT22;20808;48.974;8.452;2022-09-27T11:26:32;8.50;99.90
34572;DHT22;20808;48.974;8.452;2022-09-27T11:29:14;8.40;99.90
34572;DHT22;20808;48.974;8.452;2022-09-27T11:31:51;8.40;99.90
34572;DHT22;20808;48.974;8.452;2022-09-27T11:34:34;8.50;99.90
34572;DHT22;20808;48.974;8.452;2022-09-27T11:37:15;8.50;99.90
34572;DHT22;20808;48.974;8.452;2022-09-27T11:40:01;8.50;99.90
34572;DHT22;20808;48.974;8.452;2022-09-27T11:45:28;8.40;99.90
34572;DHT22;20808;48.974;8.452;2022-09-27T11:48:06;8.40;99.90
34572;DHT22;20808;48.974;8.452;2022-09-27T11:53:37;8.50;99.90
34572;DHT22;20808;48.974;8.452;2022-09-27T11:56:17;8.50;99.90
34572;DHT22;20808;48.974;8.452;2022-09-27T11:58:58;8.50;99.90
34572;DHT22;20808;48.974;8.452;2022-09-27T12:01:31;8.60;99.90
34572;DHT22;20808;48.974;8.452;2022-09-27T12:04:23;8.70;99.90
34572;DHT22;20808;48.974;8.452;2022-09-27T12:06:56;8.90;99.90
34572;DHT22;20808;48.974;8.452;2022-09-27T12:09:29;9.00;99.90
34572;DHT22;20808;48.974;8.452;2022-09-27T12:12:02;9.00;99.90
34572;DHT22;20808;48.974;8.452;2022-09-27T12:14:34;8.90;99.90
34572;DHT22;20808;48.974;8.452;2022-09-27T12:17:03;8.80;99.90
34572;DHT22;20808;48.974;8.452;2022-09-27T12:19:35;8.90;99.90
34572;DHT22;20808;48.974;8.452;2022-09-27T12:22:06;9.00;99.90
34572;DHT22;20808;48.974;8.452;2022-09-27T12:24:33;9.00;99.90
34572;DHT22;20808;48.974;8.452;2022-09-27T12:27:07;9.20;99.90
34572;DHT22;20808;48.974;8.452;2022-09-27T12:29:37;9.20;99.90
34572;DHT22;20808;48.974;8.452;2022-09-27T12:32:11;9.60;99.90
34572;DHT22;20808;48.974;8.452;2022-09-27T12:34:45;10.10;99.90
34572;DHT22;20808;48.974;8.452;2022-09-27T12:37:17;10.40;99.90
34572;DHT22;20808;48.974;8.452;2022-09-27T12:39:49;10.40;99.90
34572;DHT22;20808;48.974;8.452;2022-09-27T12:42:21;10.50;99.90
34572;DHT22;20808;48.974;8.452;2022-09-27T12:44:50;10.60;99.90
34572;DHT22;20808;48.974;8.452;2022-09-27T12:47:45;11.00;99.90
34572;DHT22;20808;48.974;8.452;2022-09-27T12:50:22;11.50;81.20
34572;DHT22;20808;48.974;8.452;2022-09-27T12:52:57;11.80;1.00
34572;DHT22;20808;48.974;8.452;2022-09-27T12:55:51;12.60;1.00
34572;DHT22;20808;48.974;8.452;2022-09-27T13:01:23;12.20;15.40
34572;DHT22;20808;48.974;8.452;2022-09-27T13:04:09;11.70;1.00
34572;DHT22;20808;48.974;8.452;2022-09-27T13:06:50;11.40;1.00
34572;DHT22;20808;48.974;8.452;2022-09-27T13:09:49;11.00;16.00
34572;DHT22;20808;48.974;8.452;2022-09-27T13:12:19;10.80;99.90
34572;DHT22;20808;48.974;8.452;2022-09-27T13:14:57;10.60;99.90
34572;DHT22;20808;48.974;8.452;2022-09-27T13:17:33;10.70;99.90
34572;DHT22;20808;48.974;8.452;2022-09-27T13:20:39;10.90;99.90
34572;DHT22;20808;48.974;8.452;2022-09-27T13:26:45;11.10;99.90
34572;DHT22;20808;48.974;8.452;2022-09-27T13:29:22;11.10;99.90
34572;DHT22;20808;48.974;8.452;2022-09-27T13:32:13;11.10;99.90
34572;DHT22;20808;48.974;8.452;2022-09-27T13:34:42;11.40;99.90
34572;DHT22;20808;48.974;8.452;2022-09-27T13:37:41;11.70;99.90
34572;DHT22;20808;48.974;8.452;2022-09-27T13:40:20;11.90;95.90
34572;DHT22;20808;48.974;8.452;2022-09-27T13:45:39;11.70;98.90
34572;DHT22;20808;48.974;8.452;2022-09-27T13:48:15;11.60;99.90
34572;DHT22;20808;48.974;8.452;2022-09-27T13:50:47;11.50;99.90
34572;DHT22;20808;48.974;8.452;2022-09-27T13:53:22;11.50;99.90
34572;DHT22;20808;48.974;8.452;2022-09-27T13:55:52;11.30;99.90
34572;DHT22;20808;48.974;8.452;2022-09-27T13:58:50;11.30;99.90
34572;DHT22;20808;48.974;8.452;2022-09-27T14:01:25;11.20;99.90
34572;DHT22;20808;48.974;8.452;2022-09-27T14:03:55;11.00;99.90
34572;DHT22;20808;48.974;8.452;2022-09-27T14:06:27;10.80;99.90
34572;DHT22;20808;48.974;8.452;2022-09-27T14:08:56;10.60;99.90
34572;DHT22;20808;48.974;8.452;2022-09-27T14:11:27;10.50;99.90
34572;DHT22;20808;48.974;8.452;2022-09-27T14:13:56;10.50;99.90
34572;DHT22;20808;48.974;8.452;2022-09-27T14:16:24;10.40;99.90
34572;DHT22;20808;48.974;8.452;2022-09-27T14:18:55;10.40;99.90
34572;DHT22;20808;48.974;8.452;2022-09-27T14:21:29;10.30;99.90
34572;DHT22;20808;48.974;8.452;2022-09-27T14:24:22;10.50;99.90
34572;DHT22;20808;48.974;8.452;2022-09-27T14:27:02;11.70;99.90
34572;DHT22;20808;48.974;8.452;2022-09-27T14:29:32;13.00;99.90
34572;DHT22;20808;48.974;8.452;2022-09-27T14:32:03;13.20;1.00
34572;DHT22;20808;48.974;8.452;2022-09-27T14:34:31;12.90;1.00
34572;DHT22;20808;48.974;8.452;2022-09-27T14:36:58;12.90;99.90
34572;DHT22;20808;48.974;8.452;2022-09-27T14:39:43;12.80;99.90
34572;DHT22;20808;48.974;8.452;2022-09-27T14:42:18;12.80;1.00
34572;DHT22;20808;48.974;8.452;2022-09-27T14:44:46;13.40;1.00
34572;DHT22;20808;48.974;8.452;2022-09-27T14:47:17;13.80;99.90
34572;DHT22;20808;48.974;8.452;2022-09-27T14:49:48;13.90;1.00
34572;DHT22;20808;48.974;8.452;2022-09-27T14:52:17;13.20;98.40
34572;DHT22;20808;48.974;8.452;2022-09-27T14:54:55;12.70;1.00
34572;DHT22;20808;48.974;8.452;2022-09-27T14:57:22;12.60;16.30
34572;DHT22;20808;48.974;8.452;2022-09-27T14:59:49;12.60;99.90
34572;DHT22;20808;48.974;8.452;2022-09-27T15:02:18;12.60;99.90
34572;DHT22;20808;48.974;8.452;2022-09-27T15:04:49;12.70;99.90
34572;DHT22;20808;48.974;8.452;2022-09-27T15:07:17;12.40;1.00
34572;DHT22;20808;48.974;8.452;2022-09-27T15:09:47;12.00;1.00
34572;DHT22;20808;48.974;8.452;2022-09-27T15:12:21;11.70;1.00
34572;DHT22;20808;48.974;8.452;2022-09-27T15:14:49;11.50;1.00
34572;DHT22;20808;48.974;8.452;2022-09-27T15:17:18;11.40;11.50
34572;DHT22;20808;48.974;8.452;2022-09-27T15:19:58;11.20;99.90
34572;DHT22;20808;48.974;8.452;2022-09-27T15:22:36;11.30;99.90
34572;DHT22;20808;48.974;8.452;2022-09-27T15:25:22;11.30;99.90
34572;DHT22;20808;48.974;8.452;2022-09-27T15:28:01;11.20;43.60
34572;DHT22;20808;48.974;8.452;2022-09-27T15:30:33;11.10;99.90
34572;DHT22;20808;48.974;8.452;2022-09-27T15:33:01;11.10;92.60
34572;DHT22;20808;48.974;8.452;2022-09-27T15:35:31;11.10;99.90
34572;DHT22;20808;48.974;8.452;2022-09-27T15:38:26;11.10;1.00
34572;DHT22;20808;48.974;8.452;2022-09-27T15:41:05;11.10;1.00
34572;DHT22;20808;48.974;8.452;2022-09-27T15:43:35;11.20;1.00
34572;DHT22;20808;48.974;8.452;2022-09-27T15:49:25;11.30;1.00
34572;DHT22;20808;48.974;8.452;2022-09-27T15:51:56;11.20;94.50
34572;DHT22;20808;48.974;8.452;2022-09-27T15:54:25;11.10;1.00
34572;DHT22;20808;48.974;8.452;2022-09-27T15:56:55;11.00;1.00
34572;DHT22;20808;48.974;8.452;2022-09-27T15:59:25;10.90;30.40
34572;DHT22;20808;48.974;8.452;2022-09-27T16:01:56;10.90;1.00
34572;DHT22;20808;48.974;8.452;2022-09-27T16:04:24;11.00;99.90
34572;DHT22;20808;48.974;8.452;2022-09-27T16:06:51;11.00;1.00
34572;DHT22;20808;48.974;8.452;2022-09-27T16:09:20;11.00;1.00
34572;DHT22;20808;48.974;8.452;2022-09-27T16:11:48;11.00;99.90
34572;DHT22;20808;48.974;8.452;2022-09-27T16:14:16;11.00;1.00
34572;DHT22;20808;48.974;8.452;2022-09-27T16:16:46;11.00;1.00
34572;DHT22;20808;48.974;8.452;2022-09-27T16:19:13;11.10;1.00
34572;DHT22;20808;48.974;8.452;2022-09-27T16:21:41;11.20;1.00
34572;DHT22;20808;48.974;8.452;2022-09-27T16:24:08;11.10;99.90
34572;DHT22;20808;48.974;8.452;2022-09-27T16:26:37;11.10;99.90
34572;DHT22;20808;48.974;8.452;2022-09-27T16:29:08;11.10;1.00